This is the latest recevied weather packets stored in our database for station/object SP1BMW-13. If no packets are shown the sender has not sent any weather packets the latest 10 day(s).
| Time | Temp. | Humidity | Pressure | Rain* | Wind** | Luminosity | Snow |
|---|---|---|---|---|---|---|---|
| 1787829016 | 25° C | 42% | 1019.3 hPa | 0 mm | 0.89 m/s, 51° | 636 W/m² | - |
| 1787828955 | 25° C | 42% | 1019.3 hPa | 0 mm | 0.89 m/s, 6° | 641 W/m² | - |
| 1787828895 | 25° C | 44% | 1019.4 hPa | 0 mm | 0.89 m/s, 13° | 641 W/m² | - |
| 1787828836 | 25° C | 44% | 1019.5 hPa | 0 mm | 0.45 m/s, 54° | 641 W/m² | - |
| 1787828775 | 25° C | 42% | 1019.4 hPa | 0 mm | 2.24 m/s, 352° | 637 W/m² | - |
| 1787828716 | 25° C | 43% | 1019.5 hPa | 0 mm | 0.89 m/s, 70° | 638 W/m² | - |
| 1787828655 | 25° C | 42% | 1019.5 hPa | 0 mm | 2.68 m/s, 43° | 639 W/m² | - |
| 1787828596 | 25° C | 44% | 1019.5 hPa | 0 mm | 0.89 m/s, 44° | 639 W/m² | - |
| 1787828536 | 25° C | 43% | 1019.5 hPa | 0 mm | 1.79 m/s, 61° | 639 W/m² | - |
| 1787828476 | 25° C | 44% | 1019.3 hPa | 0 mm | 1.34 m/s, 28° | 641 W/m² | - |
| 1787828416 | 25° C | 42% | 1019.4 hPa | 0 mm | 1.34 m/s, 95° | 634 W/m² | - |
| 1787828356 | 25° C | 41% | 1019.3 hPa | 0 mm | 1.79 m/s, 61° | 631 W/m² | - |
| 1787828295 | 25° C | 41% | 1019.6 hPa | 0 mm | 2.68 m/s, 55° | 639 W/m² | - |
| 1787828236 | 25° C | 42% | 1019.5 hPa | 0 mm | 1.34 m/s, 9° | 633 W/m² | - |
| 1787828176 | 25° C | 45% | 1019.4 hPa | 0 mm | 0.45 m/s, 53° | 630 W/m² | - |
| 1787828115 | 25° C | 44% | 1019.3 hPa | 0 mm | 1.79 m/s, 25° | 632 W/m² | - |
| 1787828055 | 25° C | 43% | 1019.6 hPa | 0 mm | 1.79 m/s, 219° | 637 W/m² | - |
| 1787827996 | 25° C | 42% | 1019.5 hPa | 0 mm | 1.79 m/s, 341° | 633 W/m² | - |
| 1787827936 | 25° C | 45% | 1019.5 hPa | 0 mm | 0.45 m/s, 64° | 633 W/m² | - |
| 1787827876 | 25° C | 45% | 1019.3 hPa | 0 mm | 0.89 m/s, 57° | 636 W/m² | - |
| 1787827815 | 25° C | 45% | 1019.5 hPa | 0 mm | 0.45 m/s, 67° | 631 W/m² | - |
| 1787827755 | 25° C | 44% | 1019.4 hPa | 0 mm | 0.45 m/s, 50° | 628 W/m² | - |
| 1787827695 | 24.44° C | 44% | 1019.6 hPa | 0 mm | 0.45 m/s, 107° | 630 W/m² | - |
| 1787827635 | 24.44° C | 43% | 1019.6 hPa | 0 mm | 1.79 m/s, 97° | 628 W/m² | - |
| 1787827576 | 24.44° C | 45% | 1019.7 hPa | 0 mm | 1.34 m/s, 44° | 626 W/m² | - |
* Rain latest hour (hover to see other rain measurements)
** Current wind speed in m/s (hover to see current wind gust speed)